Airfield :
LOGIN :

Register | Disclaimer

   EN    FR    IT 

 










Legend :    VFR   Marginal VFR   IFR   Intensive IFR   Very Intensive IFR
Visi :
Ceiling :
>= 8 km
>= 3000ft
5 to 8 km
1000 to 3000 ft
1500m to 5 km
500 to 1000 ft
800 to 1500m
200 to 500 ft
< 800m
< 200 ft
Symbols :   Thunderstorms  Fog  Heavy snow  Heavy precipitations  Wind > 20 kt
SIGMETs :     Misc.  Thunderstorms  Icing  Turbulence  Mountain Waves  Volcanic Ashes






- Airport Elevation : 1504 ft
- IATA code : PNA


LEPP - Noain Pamplona

CURRENT METAR :
  • 210530Z VRB01KT 0150 R33/0325N R15/0450N FG VV001 04/04 Q1013

EXPIRED METARs :
  • 210512Z VRB02KT 0150 R33/0550N R15/0500D FG VV001 04/04 Q1013
  • 210500Z VRB02KT 0900 0100S R33/0375N R15/1900N FG OVC001 05/05 Q1013
  • 210453Z VRB02KT 1200 0150S R33/0450N R15/1500U BR PRFG NSC 05/04 Q1013
  • 210430Z 04001KT 9999 FEW010 06/05 Q1013
  • 210400Z 09002KT 9999 FEW010 06/06 Q1013
  • 210330Z 03004KT 9999 FEW010 06/06 Q1013
  • 210300Z AUTO VRB01KT CAVOK 07/07 Q1013

TAF AMD TAF LEPP
Valid from the 21 at 04:00 until the 22 at 03:00 UTC


210459Z 2104/2203 VRB05KT 9999 SCT045 TX16/2114Z TN06/2106Z
TEMPO 2104/2107 3000 BR BKN010
TEMPO 2104/2107 0800 BCFG BKN001
PROB30
TEMPO 2104/2106 0150 BCFG BKN001
PROB30
TEMPO 2104/2109 3000 RA SHRA BKN010 SCT035TCU
TEMPO 2117/2124 3000 RA SHRA BKN010 SCT035TCU
PROB40
TEMPO 2112/2117 18010KT



MET'MAP, your aeronautical weather chart ! - Copyright ORBIFLY December 2007 - Disclaimer

ORBIFLY MET'MAP TEAM :

Programming & Development : Alexandra Zaïnal
Concept & original design : Baudouin d'Aumeries
Assistance for programming : Marc-Olivier Méhu
Technical & hardware support : Manuel Goepfert

Contact : metmap@orbifly.com




SOURCES & CREDITS :

   NOAA